sensor_id;sensor_type;location;lat;lon;timestamp;P1;durP1;ratioP1;P2;durP2;ratioP2
70067;SDS011;57425;51.616;6.680;2023-04-15T00:01:17;5.57;;;1.83;;
70067;SDS011;57425;51.616;6.680;2023-04-15T00:03:44;10.63;;;2.87;;
70067;SDS011;57425;51.616;6.680;2023-04-15T00:06:10;8.57;;;2.37;;
70067;SDS011;57425;51.616;6.680;2023-04-15T00:08:36;9.13;;;2.47;;
70067;SDS011;57425;51.616;6.680;2023-04-15T00:11:02;8.00;;;2.23;;
70067;SDS011;57425;51.616;6.680;2023-04-15T00:13:29;11.43;;;2.77;;
70067;SDS011;57425;51.616;6.680;2023-04-15T00:15:58;6.70;;;2.40;;
70067;SDS011;57425;51.616;6.680;2023-04-15T00:18:24;6.43;;;2.03;;
70067;SDS011;57425;51.616;6.680;2023-04-15T00:20:50;4.17;;;2.07;;
70067;SDS011;57425;51.616;6.680;2023-04-15T00:23:17;5.53;;;2.10;;
70067;SDS011;57425;51.616;6.680;2023-04-15T00:25:43;6.50;;;2.53;;
70067;SDS011;57425;51.616;6.680;2023-04-15T00:28:08;6.03;;;2.60;;
70067;SDS011;57425;51.616;6.680;2023-04-15T00:30:34;6.90;;;2.70;;
70067;SDS011;57425;51.616;6.680;2023-04-15T00:33:00;9.50;;;2.80;;
70067;SDS011;57425;51.616;6.680;2023-04-15T00:35:28;6.53;;;2.67;;
70067;SDS011;57425;51.616;6.680;2023-04-15T00:37:56;8.20;;;2.90;;
70067;SDS011;57425;51.616;6.680;2023-04-15T00:40:22;5.77;;;2.57;;
70067;SDS011;57425;51.616;6.680;2023-04-15T00:42:48;9.37;;;3.10;;
70067;SDS011;57425;51.616;6.680;2023-04-15T00:45:15;6.27;;;2.80;;
70067;SDS011;57425;51.616;6.680;2023-04-15T00:47:42;5.83;;;2.67;;
70067;SDS011;57425;51.616;6.680;2023-04-15T00:50:09;7.60;;;3.37;;
70067;SDS011;57425;51.616;6.680;2023-04-15T00:52:35;6.40;;;2.87;;
70067;SDS011;57425;51.616;6.680;2023-04-15T00:55:01;6.03;;;3.23;;
70067;SDS011;57425;51.616;6.680;2023-04-15T00:57:28;5.03;;;2.73;;
70067;SDS011;57425;51.616;6.680;2023-04-15T00:59:55;4.17;;;2.63;;
70067;SDS011;57425;51.616;6.680;2023-04-15T01:02:21;6.10;;;3.97;;
70067;SDS011;57425;51.616;6.680;2023-04-15T01:04:47;6.60;;;3.57;;
70067;SDS011;57425;51.616;6.680;2023-04-15T01:07:14;6.63;;;2.90;;
70067;SDS011;57425;51.616;6.680;2023-04-15T01:09:40;5.97;;;3.13;;
70067;SDS011;57425;51.616;6.680;2023-04-15T01:12:06;6.57;;;3.27;;
70067;SDS011;57425;51.616;6.680;2023-04-15T01:14:34;7.83;;;3.00;;
70067;SDS011;57425;51.616;6.680;2023-04-15T01:17:00;8.67;;;3.47;;
70067;SDS011;57425;51.616;6.680;2023-04-15T01:19:26;9.40;;;3.30;;
70067;SDS011;57425;51.616;6.680;2023-04-15T01:21:53;6.70;;;3.10;;
70067;SDS011;57425;51.616;6.680;2023-04-15T01:24:21;6.07;;;2.80;;
70067;SDS011;57425;51.616;6.680;2023-04-15T01:26:47;6.80;;;3.23;;
70067;SDS011;57425;51.616;6.680;2023-04-15T01:29:14;4.83;;;3.30;;
70067;SDS011;57425;51.616;6.680;2023-04-15T01:31:40;5.43;;;3.27;;
70067;SDS011;57425;51.616;6.680;2023-04-15T01:34:17;6.67;;;3.27;;
70067;SDS011;57425;51.616;6.680;2023-04-15T01:36:42;6.30;;;2.93;;
70067;SDS011;57425;51.616;6.680;2023-04-15T01:39:09;6.77;;;3.03;;
70067;SDS011;57425;51.616;6.680;2023-04-15T01:41:35;9.83;;;3.27;;
70067;SDS011;57425;51.616;6.680;2023-04-15T01:44:00;6.93;;;3.23;;
70067;SDS011;57425;51.616;6.680;2023-04-15T01:46:26;6.80;;;3.57;;
70067;SDS011;57425;51.616;6.680;2023-04-15T01:48:52;8.47;;;2.83;;
70067;SDS011;57425;51.616;6.680;2023-04-15T01:51:17;6.10;;;3.30;;
70067;SDS011;57425;51.616;6.680;2023-04-15T01:53:43;4.63;;;3.17;;
70067;SDS011;57425;51.616;6.680;2023-04-15T01:56:09;6.67;;;3.43;;
70067;SDS011;57425;51.616;6.680;2023-04-15T01:58:35;5.47;;;3.27;;
70067;SDS011;57425;51.616;6.680;2023-04-15T02:01:01;11.03;;;2.53;;
70067;SDS011;57425;51.616;6.680;2023-04-15T02:03:29;5.33;;;3.07;;
70067;SDS011;57425;51.616;6.680;2023-04-15T02:05:55;17.13;;;2.93;;
70067;SDS011;57425;51.616;6.680;2023-04-15T02:08:21;7.60;;;3.27;;
70067;SDS011;57425;51.616;6.680;2023-04-15T02:10:47;8.93;;;3.43;;
70067;SDS011;57425;51.616;6.680;2023-04-15T02:13:12;11.27;;;3.47;;
70067;SDS011;57425;51.616;6.680;2023-04-15T02:15:38;6.60;;;3.00;;
70067;SDS011;57425;51.616;6.680;2023-04-15T02:18:04;8.03;;;2.63;;
70067;SDS011;57425;51.616;6.680;2023-04-15T02:20:29;7.03;;;3.87;;
70067;SDS011;57425;51.616;6.680;2023-04-15T02:22:56;6.40;;;3.03;;
70067;SDS011;57425;51.616;6.680;2023-04-15T02:25:21;7.50;;;3.23;;
70067;SDS011;57425;51.616;6.680;2023-04-15T02:27:47;9.50;;;3.73;;
70067;SDS011;57425;51.616;6.680;2023-04-15T02:30:13;5.77;;;3.27;;
70067;SDS011;57425;51.616;6.680;2023-04-15T02:32:39;6.97;;;3.13;;
70067;SDS011;57425;51.616;6.680;2023-04-15T02:35:07;5.40;;;3.20;;
70067;SDS011;57425;51.616;6.680;2023-04-15T02:37:34;6.53;;;3.17;;
70067;SDS011;57425;51.616;6.680;2023-04-15T02:40:06;5.17;;;3.20;;
70067;SDS011;57425;51.616;6.680;2023-04-15T02:42:33;7.57;;;3.67;;
70067;SDS011;57425;51.616;6.680;2023-04-15T02:44:58;7.87;;;3.37;;
70067;SDS011;57425;51.616;6.680;2023-04-15T02:47:24;8.73;;;4.13;;
70067;SDS011;57425;51.616;6.680;2023-04-15T02:49:50;10.00;;;4.03;;
70067;SDS011;57425;51.616;6.680;2023-04-15T02:52:17;12.83;;;3.67;;
70067;SDS011;57425;51.616;6.680;2023-04-15T02:54:43;8.53;;;3.63;;
70067;SDS011;57425;51.616;6.680;2023-04-15T02:57:08;4.70;;;3.13;;
70067;SDS011;57425;51.616;6.680;2023-04-15T02:59:35;7.90;;;3.43;;
70067;SDS011;57425;51.616;6.680;2023-04-15T03:02:01;7.93;;;3.90;;
70067;SDS011;57425;51.616;6.680;2023-04-15T03:04:28;5.37;;;2.87;;
70067;SDS011;57425;51.616;6.680;2023-04-15T03:06:54;10.73;;;3.97;;
70067;SDS011;57425;51.616;6.680;2023-04-15T03:09:20;9.00;;;3.83;;
70067;SDS011;57425;51.616;6.680;2023-04-15T03:11:46;4.30;;;3.07;;
70067;SDS011;57425;51.616;6.680;2023-04-15T03:14:12;8.73;;;3.47;;
70067;SDS011;57425;51.616;6.680;2023-04-15T03:16:37;10.03;;;3.63;;
70067;SDS011;57425;51.616;6.680;2023-04-15T03:19:03;9.17;;;3.87;;
70067;SDS011;57425;51.616;6.680;2023-04-15T03:21:29;5.97;;;3.50;;
70067;SDS011;57425;51.616;6.680;2023-04-15T03:23:55;6.27;;;3.23;;
70067;SDS011;57425;51.616;6.680;2023-04-15T03:26:28;7.57;;;4.03;;
70067;SDS011;57425;51.616;6.680;2023-04-15T03:28:54;7.60;;;3.55;;
70067;SDS011;57425;51.616;6.680;2023-04-15T03:31:20;9.13;;;4.10;;
70067;SDS011;57425;51.616;6.680;2023-04-15T03:33:46;7.43;;;3.57;;
70067;SDS011;57425;51.616;6.680;2023-04-15T03:36:11;6.67;;;3.70;;
70067;SDS011;57425;51.616;6.680;2023-04-15T03:38:37;6.40;;;3.63;;
70067;SDS011;57425;51.616;6.680;2023-04-15T03:41:03;6.50;;;3.30;;
70067;SDS011;57425;51.616;6.680;2023-04-15T03:43:29;4.93;;;3.00;;
70067;SDS011;57425;51.616;6.680;2023-04-15T03:45:54;14.27;;;3.30;;
70067;SDS011;57425;51.616;6.680;2023-04-15T03:48:20;6.30;;;3.50;;
70067;SDS011;57425;51.616;6.680;2023-04-15T03:50:46;6.03;;;3.50;;
70067;SDS011;57425;51.616;6.680;2023-04-15T03:53:12;6.60;;;3.53;;
70067;SDS011;57425;51.616;6.680;2023-04-15T03:55:37;6.10;;;3.77;;
70067;SDS011;57425;51.616;6.680;2023-04-15T03:58:03;8.37;;;3.67;;
70067;SDS011;57425;51.616;6.680;2023-04-15T04:00:29;7.33;;;3.50;;
70067;SDS011;57425;51.616;6.680;2023-04-15T04:02:55;5.10;;;3.03;;
70067;SDS011;57425;51.616;6.680;2023-04-15T04:05:20;8.57;;;4.23;;
70067;SDS011;57425;51.616;6.680;2023-04-15T04:07:47;5.00;;;3.40;;
70067;SDS011;57425;51.616;6.680;2023-04-15T04:10:13;4.80;;;3.17;;
70067;SDS011;57425;51.616;6.680;2023-04-15T04:12:38;10.87;;;3.43;;
70067;SDS011;57425;51.616;6.680;2023-04-15T04:15:05;6.57;;;3.60;;
70067;SDS011;57425;51.616;6.680;2023-04-15T04:17:32;6.77;;;3.43;;
70067;SDS011;57425;51.616;6.680;2023-04-15T04:19:57;8.57;;;3.10;;
70067;SDS011;57425;51.616;6.680;2023-04-15T04:22:23;6.77;;;4.03;;
70067;SDS011;57425;51.616;6.680;2023-04-15T04:24:49;6.37;;;3.63;;
70067;SDS011;57425;51.616;6.680;2023-04-15T04:27:15;6.57;;;2.87;;
70067;SDS011;57425;51.616;6.680;2023-04-15T04:29:40;6.37;;;3.73;;
70067;SDS011;57425;51.616;6.680;2023-04-15T04:32:06;7.47;;;4.47;;
70067;SDS011;57425;51.616;6.680;2023-04-15T04:34:32;9.57;;;3.60;;
70067;SDS011;57425;51.616;6.680;2023-04-15T04:36:58;6.80;;;3.70;;
70067;SDS011;57425;51.616;6.680;2023-04-15T04:39:23;8.83;;;3.27;;
70067;SDS011;57425;51.616;6.680;2023-04-15T04:41:49;7.20;;;3.47;;
70067;SDS011;57425;51.616;6.680;2023-04-15T04:44:16;8.00;;;4.50;;
70067;SDS011;57425;51.616;6.680;2023-04-15T04:46:42;12.13;;;4.53;;
70067;SDS011;57425;51.616;6.680;2023-04-15T04:49:07;7.67;;;3.50;;
70067;SDS011;57425;51.616;6.680;2023-04-15T04:51:33;7.33;;;4.07;;
70067;SDS011;57425;51.616;6.680;2023-04-15T04:53:59;6.67;;;4.10;;
70067;SDS011;57425;51.616;6.680;2023-04-15T04:56:24;7.90;;;4.00;;
70067;SDS011;57425;51.616;6.680;2023-04-15T04:58:51;7.10;;;4.00;;
70067;SDS011;57425;51.616;6.680;2023-04-15T05:01:16;6.63;;;3.93;;
70067;SDS011;57425;51.616;6.680;2023-04-15T05:03:42;8.07;;;3.73;;
70067;SDS011;57425;51.616;6.680;2023-04-15T05:06:08;10.27;;;4.10;;
70067;SDS011;57425;51.616;6.680;2023-04-15T05:08:33;9.27;;;4.50;;
70067;SDS011;57425;51.616;6.680;2023-04-15T05:10:59;7.43;;;4.17;;
70067;SDS011;57425;51.616;6.680;2023-04-15T05:13:24;8.77;;;4.40;;
70067;SDS011;57425;51.616;6.680;2023-04-15T05:15:51;7.53;;;4.03;;
70067;SDS011;57425;51.616;6.680;2023-04-15T05:18:17;10.27;;;4.83;;
70067;SDS011;57425;51.616;6.680;2023-04-15T05:20:42;5.57;;;3.87;;
70067;SDS011;57425;51.616;6.680;2023-04-15T05:23:08;10.60;;;4.33;;
70067;SDS011;57425;51.616;6.680;2023-04-15T05:25:33;9.80;;;4.37;;
70067;SDS011;57425;51.616;6.680;2023-04-15T05:28:00;9.80;;;5.30;;
70067;SDS011;57425;51.616;6.680;2023-04-15T05:30:25;7.87;;;4.20;;
70067;SDS011;57425;51.616;6.680;2023-04-15T05:32:51;13.10;;;4.30;;
70067;SDS011;57425;51.616;6.680;2023-04-15T05:35:17;8.87;;;5.00;;
70067;SDS011;57425;51.616;6.680;2023-04-15T05:37:43;9.70;;;4.70;;
70067;SDS011;57425;51.616;6.680;2023-04-15T05:40:09;9.90;;;5.47;;
70067;SDS011;57425;51.616;6.680;2023-04-15T05:42:34;10.50;;;5.03;;
70067;SDS011;57425;51.616;6.680;2023-04-15T05:45:00;8.37;;;4.70;;
70067;SDS011;57425;51.616;6.680;2023-04-15T05:47:29;8.27;;;5.30;;
70067;SDS011;57425;51.616;6.680;2023-04-15T05:49:55;9.13;;;5.07;;
70067;SDS011;57425;51.616;6.680;2023-04-15T05:52:23;8.30;;;4.80;;
70067;SDS011;57425;51.616;6.680;2023-04-15T05:54:48;9.47;;;4.87;;
70067;SDS011;57425;51.616;6.680;2023-04-15T05:57:14;9.47;;;5.07;;
70067;SDS011;57425;51.616;6.680;2023-04-15T05:59:40;7.73;;;4.63;;
70067;SDS011;57425;51.616;6.680;2023-04-15T06:02:06;11.97;;;5.53;;
70067;SDS011;57425;51.616;6.680;2023-04-15T06:04:33;15.60;;;5.67;;
70067;SDS011;57425;51.616;6.680;2023-04-15T06:06:59;11.23;;;5.47;;
70067;SDS011;57425;51.616;6.680;2023-04-15T06:09:25;10.83;;;5.93;;
70067;SDS011;57425;51.616;6.680;2023-04-15T06:11:51;8.10;;;4.80;;
70067;SDS011;57425;51.616;6.680;2023-04-15T06:14:17;11.13;;;5.87;;
70067;SDS011;57425;51.616;6.680;2023-04-15T06:16:42;11.60;;;6.17;;
70067;SDS011;57425;51.616;6.680;2023-04-15T06:19:08;9.83;;;5.63;;
70067;SDS011;57425;51.616;6.680;2023-04-15T06:21:33;10.43;;;6.30;;
70067;SDS011;57425;51.616;6.680;2023-04-15T06:23:59;12.93;;;5.77;;
70067;SDS011;57425;51.616;6.680;2023-04-15T06:26:25;15.70;;;6.50;;
70067;SDS011;57425;51.616;6.680;2023-04-15T06:28:52;9.23;;;5.53;;
70067;SDS011;57425;51.616;6.680;2023-04-15T06:31:17;9.90;;;5.03;;
70067;SDS011;57425;51.616;6.680;2023-04-15T06:33:43;12.27;;;6.40;;
70067;SDS011;57425;51.616;6.680;2023-04-15T06:36:09;9.50;;;4.87;;
70067;SDS011;57425;51.616;6.680;2023-04-15T06:38:35;8.27;;;5.00;;
70067;SDS011;57425;51.616;6.680;2023-04-15T06:41:01;10.37;;;5.73;;
70067;SDS011;57425;51.616;6.680;2023-04-15T06:43:27;7.90;;;4.73;;
70067;SDS011;57425;51.616;6.680;2023-04-15T06:45:53;11.07;;;5.77;;
70067;SDS011;57425;51.616;6.680;2023-04-15T06:48:19;13.60;;;5.63;;
70067;SDS011;57425;51.616;6.680;2023-04-15T06:50:44;10.13;;;5.10;;
70067;SDS011;57425;51.616;6.680;2023-04-15T06:53:10;10.40;;;5.30;;
70067;SDS011;57425;51.616;6.680;2023-04-15T06:55:36;8.13;;;5.07;;
70067;SDS011;57425;51.616;6.680;2023-04-15T06:58:01;11.57;;;5.47;;
70067;SDS011;57425;51.616;6.680;2023-04-15T07:00:27;12.67;;;5.53;;
70067;SDS011;57425;51.616;6.680;2023-04-15T07:02:53;7.87;;;4.47;;
70067;SDS011;57425;51.616;6.680;2023-04-15T07:05:19;8.93;;;5.70;;
70067;SDS011;57425;51.616;6.680;2023-04-15T07:07:45;9.83;;;5.27;;
70067;SDS011;57425;51.616;6.680;2023-04-15T07:10:12;9.50;;;5.53;;
70067;SDS011;57425;51.616;6.680;2023-04-15T07:12:38;9.43;;;5.17;;
70067;SDS011;57425;51.616;6.680;2023-04-15T07:15:05;8.53;;;4.37;;
70067;SDS011;57425;51.616;6.680;2023-04-15T07:17:31;10.13;;;5.07;;
70067;SDS011;57425;51.616;6.680;2023-04-15T07:19:57;7.30;;;4.43;;
70067;SDS011;57425;51.616;6.680;2023-04-15T07:22:23;9.50;;;4.57;;
70067;SDS011;57425;51.616;6.680;2023-04-15T07:24:49;11.80;;;4.93;;
70067;SDS011;57425;51.616;6.680;2023-04-15T07:27:14;8.13;;;4.40;;
70067;SDS011;57425;51.616;6.680;2023-04-15T07:29:41;7.60;;;4.27;;
70067;SDS011;57425;51.616;6.680;2023-04-15T07:32:07;4.23;;;2.50;;
70067;SDS011;57425;51.616;6.680;2023-04-15T07:34:34;5.63;;;3.70;;
70067;SDS011;57425;51.616;6.680;2023-04-15T07:37:00;7.00;;;3.70;;
70067;SDS011;57425;51.616;6.680;2023-04-15T07:39:26;5.33;;;3.67;;
70067;SDS011;57425;51.616;6.680;2023-04-15T07:41:52;5.43;;;3.50;;
70067;SDS011;57425;51.616;6.680;2023-04-15T07:44:18;8.03;;;4.30;;
70067;SDS011;57425;51.616;6.680;2023-04-15T07:46:43;8.13;;;3.93;;
70067;SDS011;57425;51.616;6.680;2023-04-15T07:49:09;4.50;;;2.73;;
70067;SDS011;57425;51.616;6.680;2023-04-15T07:51:35;7.83;;;3.60;;
70067;SDS011;57425;51.616;6.680;2023-04-15T07:54:01;9.17;;;3.43;;
70067;SDS011;57425;51.616;6.680;2023-04-15T07:56:27;7.77;;;4.07;;
70067;SDS011;57425;51.616;6.680;2023-04-15T07:58:52;9.00;;;4.57;;
70067;SDS011;57425;51.616;6.680;2023-04-15T08:01:18;6.57;;;3.73;;
70067;SDS011;57425;51.616;6.680;2023-04-15T08:03:43;7.10;;;3.77;;
70067;SDS011;57425;51.616;6.680;2023-04-15T08:06:09;9.67;;;3.40;;
70067;SDS011;57425;51.616;6.680;2023-04-15T08:08:35;7.30;;;4.00;;
70067;SDS011;57425;51.616;6.680;2023-04-15T08:11:00;5.43;;;3.67;;
70067;SDS011;57425;51.616;6.680;2023-04-15T08:13:26;9.33;;;4.23;;
70067;SDS011;57425;51.616;6.680;2023-04-15T08:18:47;7.87;;;3.67;;
70067;SDS011;57425;51.616;6.680;2023-04-15T08:21:13;6.50;;;4.20;;
70067;SDS011;57425;51.616;6.680;2023-04-15T08:23:39;6.97;;;3.83;;
70067;SDS011;57425;51.616;6.680;2023-04-15T08:26:05;8.87;;;3.60;;
70067;SDS011;57425;51.616;6.680;2023-04-15T08:28:31;6.90;;;3.60;;
70067;SDS011;57425;51.616;6.680;2023-04-15T08:30:57;5.10;;;2.80;;
70067;SDS011;57425;51.616;6.680;2023-04-15T08:33:22;6.77;;;3.63;;
70067;SDS011;57425;51.616;6.680;2023-04-15T08:35:48;5.10;;;2.73;;
70067;SDS011;57425;51.616;6.680;2023-04-15T08:38:14;7.20;;;3.37;;
70067;SDS011;57425;51.616;6.680;2023-04-15T08:40:40;4.73;;;3.17;;
70067;SDS011;57425;51.616;6.680;2023-04-15T08:43:11;4.27;;;2.30;;
70067;SDS011;57425;51.616;6.680;2023-04-15T08:45:42;7.90;;;2.63;;
70067;SDS011;57425;51.616;6.680;2023-04-15T08:48:09;10.30;;;3.10;;
70067;SDS011;57425;51.616;6.680;2023-04-15T08:50:42;5.83;;;3.10;;
70067;SDS011;57425;51.616;6.680;2023-04-15T08:53:08;9.30;;;5.53;;
70067;SDS011;57425;51.616;6.680;2023-04-15T08:55:35;4.87;;;2.47;;
70067;SDS011;57425;51.616;6.680;2023-04-15T08:58:03;5.00;;;2.47;;
70067;SDS011;57425;51.616;6.680;2023-04-15T09:00:30;5.10;;;2.90;;
70067;SDS011;57425;51.616;6.680;2023-04-15T09:02:58;5.03;;;3.10;;
70067;SDS011;57425;51.616;6.680;2023-04-15T09:05:23;9.20;;;3.73;;
70067;SDS011;57425;51.616;6.680;2023-04-15T09:07:49;5.33;;;2.70;;
70067;SDS011;57425;51.616;6.680;2023-04-15T09:10:15;4.83;;;2.83;;
70067;SDS011;57425;51.616;6.680;2023-04-15T09:12:41;4.77;;;2.50;;
70067;SDS011;57425;51.616;6.680;2023-04-15T09:15:09;4.87;;;3.03;;
70067;SDS011;57425;51.616;6.680;2023-04-15T09:17:40;12.10;;;4.07;;
70067;SDS011;57425;51.616;6.680;2023-04-15T09:20:11;7.30;;;3.50;;
70067;SDS011;57425;51.616;6.680;2023-04-15T09:22:39;5.10;;;2.77;;
70067;SDS011;57425;51.616;6.680;2023-04-15T09:25:26;6.37;;;3.40;;
70067;SDS011;57425;51.616;6.680;2023-04-15T09:27:53;6.27;;;3.73;;
70067;SDS011;57425;51.616;6.680;2023-04-15T09:30:23;8.57;;;3.47;;
70067;SDS011;57425;51.616;6.680;2023-04-15T09:35:16;10.10;;;3.40;;
70067;SDS011;57425;51.616;6.680;2023-04-15T09:37:42;7.20;;;3.07;;
70067;SDS011;57425;51.616;6.680;2023-04-15T09:40:07;4.40;;;3.00;;
70067;SDS011;57425;51.616;6.680;2023-04-15T09:42:35;9.80;;;3.80;;
70067;SDS011;57425;51.616;6.680;2023-04-15T09:45:09;10.67;;;5.20;;
70067;SDS011;57425;51.616;6.680;2023-04-15T09:47:36;5.70;;;2.70;;
70067;SDS011;57425;51.616;6.680;2023-04-15T09:50:01;5.60;;;3.00;;
70067;SDS011;57425;51.616;6.680;2023-04-15T09:52:28;11.53;;;3.80;;
70067;SDS011;57425;51.616;6.680;2023-04-15T09:54:55;5.67;;;2.70;;
70067;SDS011;57425;51.616;6.680;2023-04-15T09:57:22;8.93;;;2.87;;
70067;SDS011;57425;51.616;6.680;2023-04-15T09:59:48;8.67;;;3.60;;
70067;SDS011;57425;51.616;6.680;2023-04-15T10:02:14;5.17;;;2.93;;
70067;SDS011;57425;51.616;6.680;2023-04-15T10:04:42;4.77;;;3.20;;
70067;SDS011;57425;51.616;6.680;2023-04-15T10:07:08;4.67;;;2.53;;
70067;SDS011;57425;51.616;6.680;2023-04-15T10:09:35;3.87;;;2.50;;
70067;SDS011;57425;51.616;6.680;2023-04-15T10:12:03;8.97;;;2.70;;
70067;SDS011;57425;51.616;6.680;2023-04-15T10:14:30;4.73;;;2.93;;
70067;SDS011;57425;51.616;6.680;2023-04-15T10:17:00;5.67;;;2.67;;
70067;SDS011;57425;51.616;6.680;2023-04-15T10:19:27;13.00;;;3.73;;
70067;SDS011;57425;51.616;6.680;2023-04-15T10:21:57;7.97;;;4.03;;
70067;SDS011;57425;51.616;6.680;2023-04-15T10:24:23;8.83;;;4.37;;
70067;SDS011;57425;51.616;6.680;2023-04-15T10:26:52;5.23;;;3.20;;
70067;SDS011;57425;51.616;6.680;2023-04-15T10:29:19;9.57;;;3.37;;
70067;SDS011;57425;51.616;6.680;2023-04-15T10:31:45;6.27;;;3.63;;
70067;SDS011;57425;51.616;6.680;2023-04-15T10:34:12;4.90;;;2.80;;
70067;SDS011;57425;51.616;6.680;2023-04-15T10:36:39;4.60;;;2.90;;
70067;SDS011;57425;51.616;6.680;2023-04-15T10:39:36;6.63;;;2.83;;
70067;SDS011;57425;51.616;6.680;2023-04-15T10:42:09;4.77;;;2.70;;
70067;SDS011;57425;51.616;6.680;2023-04-15T10:44:45;6.10;;;3.70;;
70067;SDS011;57425;51.616;6.680;2023-04-15T10:47:14;7.33;;;3.10;;
70067;SDS011;57425;51.616;6.680;2023-04-15T10:49:57;4.30;;;2.57;;
70067;SDS011;57425;51.616;6.680;2023-04-15T10:52:26;4.90;;;3.13;;
70067;SDS011;57425;51.616;6.680;2023-04-15T10:57:39;4.13;;;2.15;;
70067;SDS011;57425;51.616;6.680;2023-04-15T11:00:10;13.07;;;4.00;;
70067;SDS011;57425;51.616;6.680;2023-04-15T11:02:53;4.23;;;2.83;;
70067;SDS011;57425;51.616;6.680;2023-04-15T11:05:22;5.33;;;2.07;;
70067;SDS011;57425;51.616;6.680;2023-04-15T11:08:15;6.57;;;2.90;;
70067;SDS011;57425;51.616;6.680;2023-04-15T11:15:39;3.67;;;2.40;;
70067;SDS011;57425;51.616;6.680;2023-04-15T11:18:12;13.00;;;2.90;;
70067;SDS011;57425;51.616;6.680;2023-04-15T11:20:45;7.57;;;3.77;;
70067;SDS011;57425;51.616;6.680;2023-04-15T11:23:12;4.90;;;2.63;;
70067;SDS011;57425;51.616;6.680;2023-04-15T11:25:51;6.80;;;2.60;;
70067;SDS011;57425;51.616;6.680;2023-04-15T11:28:20;4.53;;;2.23;;
70067;SDS011;57425;51.616;6.680;2023-04-15T11:30:53;4.10;;;2.38;;
70067;SDS011;57425;51.616;6.680;2023-04-15T11:33:19;3.30;;;2.30;;
70067;SDS011;57425;51.616;6.680;2023-04-15T11:35:46;3.37;;;2.13;;
70067;SDS011;57425;51.616;6.680;2023-04-15T11:38:12;5.87;;;2.00;;
70067;SDS011;57425;51.616;6.680;2023-04-15T11:40:40;2.47;;;1.80;;
70067;SDS011;57425;51.616;6.680;2023-04-15T11:48:17;6.27;;;2.97;;
70067;SDS011;57425;51.616;6.680;2023-04-15T11:50:43;6.07;;;2.70;;
70067;SDS011;57425;51.616;6.680;2023-04-15T11:53:10;5.57;;;2.33;;
70067;SDS011;57425;51.616;6.680;2023-04-15T11:55:41;6.23;;;2.53;;
70067;SDS011;57425;51.616;6.680;2023-04-15T11:58:12;5.17;;;3.07;;
70067;SDS011;57425;51.616;6.680;2023-04-15T12:00:40;4.90;;;2.13;;
70067;SDS011;57425;51.616;6.680;2023-04-15T12:03:10;21.70;;;3.63;;
70067;SDS011;57425;51.616;6.680;2023-04-15T12:11:50;6.60;;;2.30;;
70067;SDS011;57425;51.616;6.680;2023-04-15T12:16:50;5.43;;;2.47;;
70067;SDS011;57425;51.616;6.680;2023-04-15T12:24:20;8.87;;;2.83;;
70067;SDS011;57425;51.616;6.680;2023-04-15T12:26:48;5.47;;;2.30;;
70067;SDS011;57425;51.616;6.680;2023-04-15T12:29:25;8.03;;;2.33;;
70067;SDS011;57425;51.616;6.680;2023-04-15T12:31:56;6.77;;;2.50;;
70067;SDS011;57425;51.616;6.680;2023-04-15T12:34:36;7.53;;;1.60;;
70067;SDS011;57425;51.616;6.680;2023-04-15T12:37:03;6.17;;;2.53;;
70067;SDS011;57425;51.616;6.680;2023-04-15T12:39:33;3.93;;;1.73;;
70067;SDS011;57425;51.616;6.680;2023-04-15T12:42:00;3.73;;;1.73;;
70067;SDS011;57425;51.616;6.680;2023-04-15T12:44:27;8.50;;;1.90;;
70067;SDS011;57425;51.616;6.680;2023-04-15T12:46:53;19.73;;;2.20;;
70067;SDS011;57425;51.616;6.680;2023-04-15T12:49:19;3.07;;;1.57;;
70067;SDS011;57425;51.616;6.680;2023-04-15T12:51:49;3.30;;;1.53;;
70067;SDS011;57425;51.616;6.680;2023-04-15T12:54:17;8.97;;;1.20;;
70067;SDS011;57425;51.616;6.680;2023-04-15T12:56:43;4.10;;;1.60;;
70067;SDS011;57425;51.616;6.680;2023-04-15T12:59:10;3.33;;;1.87;;
70067;SDS011;57425;51.616;6.680;2023-04-15T13:01:37;7.43;;;1.80;;
70067;SDS011;57425;51.616;6.680;2023-04-15T13:04:03;1.40;;;1.03;;
70067;SDS011;57425;51.616;6.680;2023-04-15T13:06:29;8.67;;;1.63;;
70067;SDS011;57425;51.616;6.680;2023-04-15T13:08:57;5.27;;;1.87;;
70067;SDS011;57425;51.616;6.680;2023-04-15T13:11:23;6.33;;;2.03;;
70067;SDS011;57425;51.616;6.680;2023-04-15T13:13:51;13.50;;;2.10;;
70067;SDS011;57425;51.616;6.680;2023-04-15T13:16:17;7.43;;;2.93;;
70067;SDS011;57425;51.616;6.680;2023-04-15T13:18:43;5.17;;;2.60;;
70067;SDS011;57425;51.616;6.680;2023-04-15T13:21:11;6.43;;;1.73;;
70067;SDS011;57425;51.616;6.680;2023-04-15T13:23:37;3.00;;;1.70;;
70067;SDS011;57425;51.616;6.680;2023-04-15T13:26:02;2.97;;;1.93;;
70067;SDS011;57425;51.616;6.680;2023-04-15T13:28:28;4.83;;;2.07;;
70067;SDS011;57425;51.616;6.680;2023-04-15T13:30:53;2.30;;;1.40;;
70067;SDS011;57425;51.616;6.680;2023-04-15T13:33:19;1.83;;;1.50;;
70067;SDS011;57425;51.616;6.680;2023-04-15T13:35:45;4.73;;;1.87;;
70067;SDS011;57425;51.616;6.680;2023-04-15T13:38:11;1.87;;;1.27;;
70067;SDS011;57425;51.616;6.680;2023-04-15T13:40:36;5.77;;;1.47;;
70067;SDS011;57425;51.616;6.680;2023-04-15T13:43:02;3.07;;;1.37;;
70067;SDS011;57425;51.616;6.680;2023-04-15T13:45:28;1.87;;;1.03;;
70067;SDS011;57425;51.616;6.680;2023-04-15T13:47:54;2.97;;;1.30;;
70067;SDS011;57425;51.616;6.680;2023-04-15T13:50:21;5.60;;;1.23;;
70067;SDS011;57425;51.616;6.680;2023-04-15T13:52:47;8.20;;;1.43;;
70067;SDS011;57425;51.616;6.680;2023-04-15T13:55:12;3.63;;;1.20;;
70067;SDS011;57425;51.616;6.680;2023-04-15T13:57:38;2.97;;;1.13;;
70067;SDS011;57425;51.616;6.680;2023-04-15T14:00:04;4.27;;;1.20;;
70067;SDS011;57425;51.616;6.680;2023-04-15T14:02:30;3.07;;;1.20;;
70067;SDS011;57425;51.616;6.680;2023-04-15T14:04:56;2.40;;;1.27;;
70067;SDS011;57425;51.616;6.680;2023-04-15T14:07:22;1.60;;;1.03;;
70067;SDS011;57425;51.616;6.680;2023-04-15T14:09:48;1.53;;;1.23;;
70067;SDS011;57425;51.616;6.680;2023-04-15T14:12:13;2.87;;;1.70;;
70067;SDS011;57425;51.616;6.680;2023-04-15T14:14:39;3.50;;;1.50;;
70067;SDS011;57425;51.616;6.680;2023-04-15T14:17:05;1.33;;;1.03;;
70067;SDS011;57425;51.616;6.680;2023-04-15T14:19:31;2.10;;;1.40;;
70067;SDS011;57425;51.616;6.680;2023-04-15T14:21:57;2.50;;;1.33;;
70067;SDS011;57425;51.616;6.680;2023-04-15T14:24:23;2.83;;;1.13;;
70067;SDS011;57425;51.616;6.680;2023-04-15T14:26:49;2.33;;;1.10;;
70067;SDS011;57425;51.616;6.680;2023-04-15T14:29:15;2.67;;;1.43;;
70067;SDS011;57425;51.616;6.680;2023-04-15T14:31:40;2.43;;;0.90;;
70067;SDS011;57425;51.616;6.680;2023-04-15T14:34:08;1.63;;;1.00;;
70067;SDS011;57425;51.616;6.680;2023-04-15T14:36:34;2.73;;;1.20;;
70067;SDS011;57425;51.616;6.680;2023-04-15T14:39:00;4.77;;;0.97;;
70067;SDS011;57425;51.616;6.680;2023-04-15T14:41:27;6.23;;;1.43;;
70067;SDS011;57425;51.616;6.680;2023-04-15T14:43:53;1.83;;;1.30;;
70067;SDS011;57425;51.616;6.680;2023-04-15T14:46:19;5.33;;;1.43;;
70067;SDS011;57425;51.616;6.680;2023-04-15T14:48:44;3.00;;;1.30;;
70067;SDS011;57425;51.616;6.680;2023-04-15T14:51:10;3.43;;;1.10;;
70067;SDS011;57425;51.616;6.680;2023-04-15T14:53:36;3.63;;;1.50;;
70067;SDS011;57425;51.616;6.680;2023-04-15T14:56:01;1.87;;;1.10;;
70067;SDS011;57425;51.616;6.680;2023-04-15T14:58:27;2.70;;;1.33;;
70067;SDS011;57425;51.616;6.680;2023-04-15T15:00:53;2.90;;;1.60;;
70067;SDS011;57425;51.616;6.680;2023-04-15T15:03:18;5.53;;;1.57;;
70067;SDS011;57425;51.616;6.680;2023-04-15T15:05:44;2.37;;;1.30;;
70067;SDS011;57425;51.616;6.680;2023-04-15T15:08:11;2.50;;;1.37;;
70067;SDS011;57425;51.616;6.680;2023-04-15T15:10:37;2.33;;;1.27;;
70067;SDS011;57425;51.616;6.680;2023-04-15T15:13:05;3.03;;;1.40;;
70067;SDS011;57425;51.616;6.680;2023-04-15T15:15:32;5.03;;;2.60;;